Current Weather

Southwest Michigan Rgnl

Benton Harbor, Michigan (KBEH)

Report from: Friday, February 23, 2024 1:53 PM EST
Current time: Friday, February 23, 2024 2:52 PM EST

Nearby weather – Weather history – Daily summaries
Weather forecast

Temperature6.1°C (43.0°F)
Wind chill3.8°C (38.8°F)
Dew point0.0°C (32.0°F)
Winds 6 kts (3.1 m/s, 6.9 mph) Vrb
Winds variableWinds variable
Visibility10 mi. (16.1 km)
Clouds Sky clear
Altimeter29.68 in.Hg (1005 mB)
Relative humidity65 %
Density altitude-719 ft. (-219 m)
Sea-level pressure100.6 kPa (1006 mB, 29.70 in.Hg)
Remarks Fully automated report
Automated weather observing station with precipitation discriminator
Flight conditions Visual Meteorological Conditions
Raw dataKBEH 231853Z AUTO VRB06KT 10SM CLR 06/00 A2968 RMK AO2 SLP056 T00610000
An error has occurred. This application may no longer respond until reloaded. Reload 🗙